sensor_id;sensor_type;location;lat;lon;timestamp;P1;P2;P0
72918;PMS7003;68407;55.694;26.994;2023-12-22T00:02:16;0.2;0;0
72918;PMS7003;68407;55.694;26.994;2023-12-22T00:06:36;0.6;0.4;0.4
72918;PMS7003;68407;55.694;26.994;2023-12-22T00:12:10;0;0;0
72918;PMS7003;68407;55.694;26.994;2023-12-22T00:17:00;0.4;0.4;0.2
72918;PMS7003;68407;55.694;26.994;2023-12-22T00:21:44;1.2;0.2;0
72918;PMS7003;68407;55.694;26.994;2023-12-22T00:27:22;1.4;0.6;0.2
72918;PMS7003;68407;55.694;26.994;2023-12-22T00:31:40;0.2;0;0
72918;PMS7003;68407;55.694;26.994;2023-12-22T00:37:22;0.4;0.2;0
72918;PMS7003;68407;55.694;26.994;2023-12-22T00:42:22;0.4;0.2;0
72918;PMS7003;68407;55.694;26.994;2023-12-22T00:46:44;0.4;0.2;0
72918;PMS7003;68407;55.694;26.994;2023-12-22T00:51:36;0.4;0.2;0
72918;PMS7003;68407;55.694;26.994;2023-12-22T00:56:36;0.2;0.2;0.2
72918;PMS7003;68407;55.694;26.994;2023-12-22T01:01:46;0.8;0.4;0.2
72918;PMS7003;68407;55.694;26.994;2023-12-22T01:07:02;0.8;0.2;0.2
72918;PMS7003;68407;55.694;26.994;2023-12-22T01:11:42;0;0;0
72918;PMS7003;68407;55.694;26.994;2023-12-22T01:17:24;0;0;0
72918;PMS7003;68407;55.694;26.994;2023-12-22T01:22:02;0.2;0.2;0
72918;PMS7003;68407;55.694;26.994;2023-12-22T01:27:20;0.2;0;0
72918;PMS7003;68407;55.694;26.994;2023-12-22T01:32:22;0.6;0;0
72918;PMS7003;68407;55.694;26.994;2023-12-22T01:37:02;0;0;0
72918;PMS7003;68407;55.694;26.994;2023-12-22T01:41:38;0.4;0.2;0.2
72918;PMS7003;68407;55.694;26.994;2023-12-22T01:47:10;0.6;0.2;0.2
72918;PMS7003;68407;55.694;26.994;2023-12-22T01:51:36;1;0.4;0.2
72918;PMS7003;68407;55.694;26.994;2023-12-22T01:57:00;0.2;0.2;0.2
72918;PMS7003;68407;55.694;26.994;2023-12-22T02:01:52;0.2;0.2;0
72918;PMS7003;68407;55.694;26.994;2023-12-22T02:07:20;0.2;0;0
72918;PMS7003;68407;55.694;26.994;2023-12-22T02:11:54;0.3;0;0
72918;PMS7003;68407;55.694;26.994;2023-12-22T02:17:24;0.6;0.2;0
72918;PMS7003;68407;55.694;26.994;2023-12-22T02:22:20;0.4;0.4;0.4
72918;PMS7003;68407;55.694;26.994;2023-12-22T02:26:54;0;0;0
72918;PMS7003;68407;55.694;26.994;2023-12-22T02:32:13;0.4;0;0
72918;PMS7003;68407;55.694;26.994;2023-12-22T02:36:46;0.6;0;0
72918;PMS7003;68407;55.694;26.994;2023-12-22T02:41:46;0.2;0;0
72918;PMS7003;68407;55.694;26.994;2023-12-22T02:46:38;0;0;0
72918;PMS7003;68407;55.694;26.994;2023-12-22T02:51:52;0;0;0
72918;PMS7003;68407;55.694;26.994;2023-12-22T02:57:24;0.4;0;0
72918;PMS7003;68407;55.694;26.994;2023-12-22T03:02:22;0.4;0;0
72918;PMS7003;68407;55.694;26.994;2023-12-22T03:07:24;0.2;0;0
72918;PMS7003;68407;55.694;26.994;2023-12-22T03:12:20;0.3;0;0
72918;PMS7003;68407;55.694;26.994;2023-12-22T03:17:00;0.2;0;0
72918;PMS7003;68407;55.694;26.994;2023-12-22T03:21:42;0;0;0
72918;PMS7003;68407;55.694;26.994;2023-12-22T03:26:36;0;0;0
72918;PMS7003;68407;55.694;26.994;2023-12-22T03:31:38;0;0;0
72918;PMS7003;68407;55.694;26.994;2023-12-22T03:37:02;0;0;0
72918;PMS7003;68407;55.694;26.994;2023-12-22T03:41:46;0;0;0
72918;PMS7003;68407;55.694;26.994;2023-12-22T03:47:22;0;0;0
72918;PMS7003;68407;55.694;26.994;2023-12-22T03:51:40;0.2;0;0
72918;PMS7003;68407;55.694;26.994;2023-12-22T03:57:12;0.2;0;0
72918;PMS7003;68407;55.694;26.994;2023-12-22T04:02:20;0;0;0
72918;PMS7003;68407;55.694;26.994;2023-12-22T04:06:40;0;0;0
72918;PMS7003;68407;55.694;26.994;2023-12-22T04:11:38;0;0;0
72918;PMS7003;68407;55.694;26.994;2023-12-22T04:16:36;0;0;0
72918;PMS7003;68407;55.694;26.994;2023-12-22T04:22:06;0;0;0
72918;PMS7003;68407;55.694;26.994;2023-12-22T04:27:22;0;0;0
72918;PMS7003;68407;55.694;26.994;2023-12-22T04:31:44;0;0;0
72918;PMS7003;68407;55.694;26.994;2023-12-22T04:36:52;0;0;0
72918;PMS7003;68407;55.694;26.994;2023-12-22T04:42:04;0.2;0;0
72918;PMS7003;68407;55.694;26.994;2023-12-22T04:47:16;0.2;0;0
72918;PMS7003;68407;55.694;26.994;2023-12-22T04:52:24;0;0;0
72918;PMS7003;68407;55.694;26.994;2023-12-22T04:57:26;0.2;0;0
72918;PMS7003;68407;55.694;26.994;2023-12-22T05:02:12;0.4;0;0
72918;PMS7003;68407;55.694;26.994;2023-12-22T05:06:36;0.2;0;0
72918;PMS7003;68407;55.694;26.994;2023-12-22T05:11:56;0.2;0;0
72918;PMS7003;68407;55.694;26.994;2023-12-22T05:17:24;0.5;0;0
72918;PMS7003;68407;55.694;26.994;2023-12-22T05:21:38;0;0;0
72918;PMS7003;68407;55.694;26.994;2023-12-22T05:26:36;0;0;0
72918;PMS7003;68407;55.694;26.994;2023-12-22T05:31:46;0.6;0;0
72918;PMS7003;68407;55.694;26.994;2023-12-22T05:37:12;0.4;0.2;0
72918;PMS7003;68407;55.694;26.994;2023-12-22T05:42:26;0.4;0;0
72918;PMS7003;68407;55.694;26.994;2023-12-22T05:47:06;0.8;0.6;0.2
72918;PMS7003;68407;55.694;26.994;2023-12-22T05:52:12;1.4;0.2;0
72918;PMS7003;68407;55.694;26.994;2023-12-22T05:56:38;0.6;0.4;0
72918;PMS7003;68407;55.694;26.994;2023-12-22T06:01:38;1;0.6;0.4
72918;PMS7003;68407;55.694;26.994;2023-12-22T06:07:26;0.4;0.4;0.2
72918;PMS7003;68407;55.694;26.994;2023-12-22T06:11:46;1.8;0.6;0.4
72918;PMS7003;68407;55.694;26.994;2023-12-22T06:16:44;1;0.5;0
72918;PMS7003;68407;55.694;26.994;2023-12-22T06:22:06;0.6;0.4;0.2
72918;PMS7003;68407;55.694;26.994;2023-12-22T06:27:14;1;0.8;0.4
72918;PMS7003;68407;55.694;26.994;2023-12-22T06:32:26;0.4;0.4;0.2
72918;PMS7003;68407;55.694;26.994;2023-12-22T06:37:26;1.4;0.6;0
72918;PMS7003;68407;55.694;26.994;2023-12-22T06:41:54;1.2;0.2;0
72918;PMS7003;68407;55.694;26.994;2023-12-22T06:46:38;1.2;0.2;0
72918;PMS7003;68407;55.694;26.994;2023-12-22T06:52:14;1;0;0
72918;PMS7003;68407;55.694;26.994;2023-12-22T06:57:26;1;0.4;0.2
72918;PMS7003;68407;55.694;26.994;2023-12-22T07:02:22;0.8;0.8;0.8
72918;PMS7003;68407;55.694;26.994;2023-12-22T07:06:36;1.6;1;0.6
72918;PMS7003;68407;55.694;26.994;2023-12-22T07:12:04;2.4;1.2;1
72918;PMS7003;68407;55.694;26.994;2023-12-22T07:17:16;2.8;1.8;0.8
72918;PMS7003;68407;55.694;26.994;2023-12-22T07:21:58;1.2;0.8;0.6
72918;PMS7003;68407;55.694;26.994;2023-12-22T07:27:14;1;1;0.6
72918;PMS7003;68407;55.694;26.994;2023-12-22T07:32:12;1.2;1;0.8
72918;PMS7003;68407;55.694;26.994;2023-12-22T07:36:46;1;1;0.4
72918;PMS7003;68407;55.694;26.994;2023-12-22T07:41:36;2.2;1;0.8
72918;PMS7003;68407;55.694;26.994;2023-12-22T07:47:24;1.6;1;1
72918;PMS7003;68407;55.694;26.994;2023-12-22T07:51:46;2.4;1.2;0.8
72918;PMS7003;68407;55.694;26.994;2023-12-22T07:56:50;1.8;1.4;1
72918;PMS7003;68407;55.694;26.994;2023-12-22T08:02:06;3.4;2.2;1.8
72918;PMS7003;68407;55.694;26.994;2023-12-22T08:07:14;5;4.6;3
72918;PMS7003;68407;55.694;26.994;2023-12-22T08:12:26;3.6;2.2;1.6
72918;PMS7003;68407;55.694;26.994;2023-12-22T08:17:26;2.5;1.8;1.3
72918;PMS7003;68407;55.694;26.994;2023-12-22T08:21:38;2;1.2;0.6
72918;PMS7003;68407;55.694;26.994;2023-12-22T08:26:36;1.6;0.6;0.6
72918;PMS7003;68407;55.694;26.994;2023-12-22T08:31:46;2.4;0.8;0.6
72918;PMS7003;68407;55.694;26.994;2023-12-22T08:37:26;2.6;1.2;0.8
72918;PMS7003;68407;55.694;26.994;2023-12-22T08:42:04;3;1.4;1
72918;PMS7003;68407;55.694;26.994;2023-12-22T08:46:38;2.4;1.2;1
72918;PMS7003;68407;55.694;26.994;2023-12-22T08:51:46;2.2;1.8;1.4
72918;PMS7003;68407;55.694;26.994;2023-12-22T08:57:15;2.4;1.8;1.2
72918;PMS7003;68407;55.694;26.994;2023-12-22T09:02:24;3.2;2.2;1.4
72918;PMS7003;68407;55.694;26.994;2023-12-22T09:07:26;2.2;1;0.8
72918;PMS7003;68407;55.694;26.994;2023-12-22T09:11:44;2.6;1.8;1.2
72918;PMS7003;68407;55.694;26.994;2023-12-22T09:16:38;3.4;2.2;1.6
72918;PMS7003;68407;55.694;26.994;2023-12-22T09:22:06;5.5;2.5;2.3
72918;PMS7003;68407;55.694;26.994;2023-12-22T09:27:26;3.6;3;2.2
72918;PMS7003;68407;55.694;26.994;2023-12-22T09:31:46;4.6;3;2.2
72918;PMS7003;68407;55.694;26.994;2023-12-22T09:36:46;7.8;3.8;3
72918;PMS7003;68407;55.694;26.994;2023-12-22T09:41:48;5.6;4;2.8
72918;PMS7003;68407;55.694;26.994;2023-12-22T09:47:16;6.2;2.6;2.2
72918;PMS7003;68407;55.694;26.994;2023-12-22T09:52:22;3.6;2.8;2.2
72918;PMS7003;68407;55.694;26.994;2023-12-22T09:57:16;4.4;3;2.4
72918;PMS7003;68407;55.694;26.994;2023-12-22T10:02:12;5.4;4;2.6
72918;PMS7003;68407;55.694;26.994;2023-12-22T10:06:54;4.4;3.2;2.4
72918;PMS7003;68407;55.694;26.994;2023-12-22T10:11:44;3.6;3;2.2
72918;PMS7003;68407;55.694;26.994;2023-12-22T10:17:26;5.2;4.2;2.8
72918;PMS7003;68407;55.694;26.994;2023-12-22T10:21:56;4.8;3.8;2.5
72918;PMS7003;68407;55.694;26.994;2023-12-22T10:26:44;4.2;3.4;2.6
72918;PMS7003;68407;55.694;26.994;2023-12-22T10:31:58;3.8;3;2.2
72918;PMS7003;68407;55.694;26.994;2023-12-22T10:37:14;3.2;2.6;2.2
72918;PMS7003;68407;55.694;26.994;2023-12-22T10:41:48;3.2;2.8;2
72918;PMS7003;68407;55.694;26.994;2023-12-22T10:47:14;2.8;2.8;2.2
72918;PMS7003;68407;55.694;26.994;2023-12-22T10:51:36;3.8;3.2;2.4
72918;PMS7003;68407;55.694;26.994;2023-12-22T10:56:38;4.4;2.4;2
72918;PMS7003;68407;55.694;26.994;2023-12-22T11:02:04;3.6;2.4;2
72918;PMS7003;68407;55.694;26.994;2023-12-22T11:07:26;3.2;2.8;1.8
72918;PMS7003;68407;55.694;26.994;2023-12-22T11:11:39;3.2;2.6;1.6
72918;PMS7003;68407;55.694;26.994;2023-12-22T11:16:38;3;2.2;1.6
72918;PMS7003;68407;55.694;26.994;2023-12-22T11:22:06;3;2;1.5
72918;PMS7003;68407;55.694;26.994;2023-12-22T11:27:17;4.2;2.4;1.8
72918;PMS7003;68407;55.694;26.994;2023-12-22T11:32:24;4.4;3.4;2.2
72918;PMS7003;68407;55.694;26.994;2023-12-22T11:37:16;4.6;2.8;2.2
72918;PMS7003;68407;55.694;26.994;2023-12-22T11:42:27;2.8;1.4;1.4
72918;PMS7003;68407;55.694;26.994;2023-12-22T11:46:46;4.4;2.2;1.8
72918;PMS7003;68407;55.694;26.994;2023-12-22T11:51:48;2.2;1.4;1.4
72918;PMS7003;68407;55.694;26.994;2023-12-22T11:57:32;0.6;0;0
72918;PMS7003;68407;55.694;26.994;2023-12-22T12:01:46;0.8;0.6;0.2
72918;PMS7003;68407;55.694;26.994;2023-12-22T12:06:52;0;0;0
72918;PMS7003;68407;55.694;26.994;2023-12-22T12:12:09;1.6;0.6;0.2
72918;PMS7003;68407;55.694;26.994;2023-12-22T12:17:16;0.8;0.2;0
72918;PMS7003;68407;55.694;26.994;2023-12-22T12:22:26;1.3;0.8;0.3
72918;PMS7003;68407;55.694;26.994;2023-12-22T12:27:17;0.8;0.8;0.4
72918;PMS7003;68407;55.694;26.994;2023-12-22T12:31:42;2.2;0.2;0.2
72918;PMS7003;68407;55.694;26.994;2023-12-22T12:36:38;0.8;0.4;0.2
72918;PMS7003;68407;55.694;26.994;2023-12-22T12:41:54;1.2;0.4;0.2
72918;PMS7003;68407;55.694;26.994;2023-12-22T12:47:22;1.2;0.8;0.6
72918;PMS7003;68407;55.694;26.994;2023-12-22T12:51:44;1.2;1;0.8
72918;PMS7003;68407;55.694;26.994;2023-12-22T12:56:52;1.2;1;0.6
72918;PMS7003;68407;55.694;26.994;2023-12-22T13:02:06;1.2;0.2;0
72918;PMS7003;68407;55.694;26.994;2023-12-22T13:07:00;0.6;0;0
72918;PMS7003;68407;55.694;26.994;2023-12-22T13:12:22;1;0.4;0
72918;PMS7003;68407;55.694;26.994;2023-12-22T13:16:40;0.4;0.4;0.4
72918;PMS7003;68407;55.694;26.994;2023-12-22T13:21:52;1;0.3;0
72918;PMS7003;68407;55.694;26.994;2023-12-22T13:27:10;0.8;0.6;0.4
72918;PMS7003;68407;55.694;26.994;2023-12-22T13:32:04;1.4;0.4;0.4
72918;PMS7003;68407;55.694;26.994;2023-12-22T13:37:24;2.4;1.4;0.8
72918;PMS7003;68407;55.694;26.994;2023-12-22T13:42:08;1.4;0.8;0.6
72918;PMS7003;68407;55.694;26.994;2023-12-22T13:46:52;1.4;1.4;1.2
72918;PMS7003;68407;55.694;26.994;2023-12-22T13:52:06;2.6;2;1.2
72918;PMS7003;68407;55.694;26.994;2023-12-22T13:57:19;1.2;1;0.8
72918;PMS7003;68407;55.694;26.994;2023-12-22T14:02:24;3.2;1.8;1.4
72918;PMS7003;68407;55.694;26.994;2023-12-22T14:06:46;3.6;1.8;1.2
72918;PMS7003;68407;55.694;26.994;2023-12-22T14:11:52;1.6;1.4;1.2
72918;PMS7003;68407;55.694;26.994;2023-12-22T14:16:44;2.2;1;0.8
72918;PMS7003;68407;55.694;26.994;2023-12-22T14:21:56;0.6;0.2;0.2
72918;PMS7003;68407;55.694;26.994;2023-12-22T14:27:24;1;0.8;0.8
72918;PMS7003;68407;55.694;26.994;2023-12-22T14:32:04;0.8;0.6;0.4
72918;PMS7003;68407;55.694;26.994;2023-12-22T14:36:38;0;0;0
72918;PMS7003;68407;55.694;26.994;2023-12-22T14:41:46;2;0.6;0.4
72918;PMS7003;68407;55.694;26.994;2023-12-22T14:47:16;1;0.8;0.4
72918;PMS7003;68407;55.694;26.994;2023-12-22T14:52:26;0.8;0.2;0.2
72918;PMS7003;68407;55.694;26.994;2023-12-22T14:56:38;1.4;0.8;0.6
72918;PMS7003;68407;55.694;26.994;2023-12-22T15:02:04;1.4;0.4;0.4
72918;PMS7003;68407;55.694;26.994;2023-12-22T15:06:38;2;1;0.8
72918;PMS7003;68407;55.694;26.994;2023-12-22T15:12:08;1.6;1;0.8
72918;PMS7003;68407;55.694;26.994;2023-12-22T15:17:04;1.4;0.4;0.2
72918;PMS7003;68407;55.694;26.994;2023-12-22T15:21:48;1;0.4;0.4
72918;PMS7003;68407;55.694;26.994;2023-12-22T15:26:52;1.8;1.5;0.8
72918;PMS7003;68407;55.694;26.994;2023-12-22T15:32:06;3.2;1.6;1.2
72918;PMS7003;68407;55.694;26.994;2023-12-22T15:37:14;3;1.4;1.2
72918;PMS7003;68407;55.694;26.994;2023-12-22T15:42:24;3;1.8;1
72918;PMS7003;68407;55.694;26.994;2023-12-22T15:46:36;2.2;1.2;0.8
72918;PMS7003;68407;55.694;26.994;2023-12-22T15:52:04;2;1.2;1
72918;PMS7003;68407;55.694;26.994;2023-12-22T15:56:46;1.8;1.2;0.8
72918;PMS7003;68407;55.694;26.994;2023-12-22T16:01:41;2.2;2;1.6
72918;PMS7003;68407;55.694;26.994;2023-12-22T16:07:24;3;1.8;1.6
72918;PMS7003;68407;55.694;26.994;2023-12-22T16:12:02;3.8;2;1.4
72918;PMS7003;68407;55.694;26.994;2023-12-22T16:16:46;4.2;2.4;1.6
72918;PMS7003;68407;55.694;26.994;2023-12-22T16:21:46;3.4;2.6;1.8
72918;PMS7003;68407;55.694;26.994;2023-12-22T16:27:14;2;1.3;1
72918;PMS7003;68407;55.694;26.994;2023-12-22T16:32:24;2;1.4;1.2
72918;PMS7003;68407;55.694;26.994;2023-12-22T16:36:46;4.2;2.2;1.4
72918;PMS7003;68407;55.694;26.994;2023-12-22T16:42:04;6.8;4.8;3.2
72918;PMS7003;68407;55.694;26.994;2023-12-22T16:46:52;5.6;4.4;3
72918;PMS7003;68407;55.694;26.994;2023-12-22T16:51:52;3.6;3;2.2
72918;PMS7003;68407;55.694;26.994;2023-12-22T16:57:26;4.2;3;2.6
72918;PMS7003;68407;55.694;26.994;2023-12-22T17:01:40;5.4;3.4;2.2
72918;PMS7003;68407;55.694;26.994;2023-12-22T17:06:45;5.4;3.6;2.2
72918;PMS7003;68407;55.694;26.994;2023-12-22T17:12:04;4.4;3.4;2.2
72918;PMS7003;68407;55.694;26.994;2023-12-22T17:17:24;5.4;3.6;3.2
72918;PMS7003;68407;55.694;26.994;2023-12-22T17:22:04;5.6;4.4;3.2
72918;PMS7003;68407;55.694;26.994;2023-12-22T17:26:38;6.5;4.3;2.8
72918;PMS7003;68407;55.694;26.994;2023-12-22T17:31:36;7;5.4;4
72918;PMS7003;68407;55.694;26.994;2023-12-22T17:37:16;5.4;4;3
72918;PMS7003;68407;55.694;26.994;2023-12-22T17:42:22;7.2;5;3.8
72918;PMS7003;68407;55.694;26.994;2023-12-22T17:46:50;7.8;5.6;3.8
72918;PMS7003;68407;55.694;26.994;2023-12-22T17:52:26;8.6;5.6;4.2
72918;PMS7003;68407;55.694;26.994;2023-12-22T17:56:46;7.2;4.4;3.4
72918;PMS7003;68407;55.694;26.994;2023-12-22T18:02:12;6.4;5;3.8
72918;PMS7003;68407;55.694;26.994;2023-12-22T18:07:16;5.4;4.2;3.4
72918;PMS7003;68407;55.694;26.994;2023-12-22T18:12:04;6.8;4.4;3
72918;PMS7003;68407;55.694;26.994;2023-12-22T18:16:38;6.6;4.8;3.6
72918;PMS7003;68407;55.694;26.994;2023-12-22T18:22:24;10;7.4;5.4
72918;PMS7003;68407;55.694;26.994;2023-12-22T18:27:06;9.3;7;4.8
72918;PMS7003;68407;55.694;26.994;2023-12-22T18:32:26;6.6;5;3.8
72918;PMS7003;68407;55.694;26.994;2023-12-22T18:37:06;5.8;4.8;3.2
72918;PMS7003;68407;55.694;26.994;2023-12-22T18:41:38;6.8;5.2;3.8
72918;PMS7003;68407;55.694;26.994;2023-12-22T18:47:04;6.6;4.8;3.6
72918;PMS7003;68407;55.694;26.994;2023-12-22T18:51:36;6.8;4.2;3.2
72918;PMS7003;68407;55.694;26.994;2023-12-22T18:57:24;5.6;3.8;2.4
72918;PMS7003;68407;55.694;26.994;2023-12-22T19:01:36;5.2;4;3
72918;PMS7003;68407;55.694;26.994;2023-12-22T19:06:44;4.8;3.6;2.8
72918;PMS7003;68407;55.694;26.994;2023-12-22T19:11:52;5.2;3.2;2.4
72918;PMS7003;68407;55.694;26.994;2023-12-22T19:16:40;5.2;4;2.8
72918;PMS7003;68407;55.694;26.994;2023-12-22T19:22:24;6.6;3.4;2
72918;PMS7003;68407;55.694;26.994;2023-12-22T19:27:14;6.4;4;2.6
72918;PMS7003;68407;55.694;26.994;2023-12-22T19:31:40;4;3.5;2.3
72918;PMS7003;68407;55.694;26.994;2023-12-22T19:36:56;5.8;3.6;2.2
72918;PMS7003;68407;55.694;26.994;2023-12-22T19:42:16;5.2;3.8;2.8
72918;PMS7003;68407;55.694;26.994;2023-12-22T19:47:24;6.4;4;3
72918;PMS7003;68407;55.694;26.994;2023-12-22T19:51:56;6;3.8;2.8
72918;PMS7003;68407;55.694;26.994;2023-12-22T19:56:38;5.6;3.8;2.6
72918;PMS7003;68407;55.694;26.994;2023-12-22T20:01:38;4.4;3;2.4
72918;PMS7003;68407;55.694;26.994;2023-12-22T20:07:14;5.8;4;3
72918;PMS7003;68407;55.694;26.994;2023-12-22T20:12:22;6;4;3
72918;PMS7003;68407;55.694;26.994;2023-12-22T20:17:16;4.6;3.8;2.4
72918;PMS7003;68407;55.694;26.994;2023-12-22T20:22:06;5;2.8;2
72918;PMS7003;68407;55.694;26.994;2023-12-22T20:26:54;4.2;2.6;2.2
72918;PMS7003;68407;55.694;26.994;2023-12-22T20:31:38;4.8;3.3;2.5
72918;PMS7003;68407;55.694;26.994;2023-12-22T20:37:14;6.2;3.6;2.8
72918;PMS7003;68407;55.694;26.994;2023-12-22T20:41:48;5;2.8;2
72918;PMS7003;68407;55.694;26.994;2023-12-22T20:46:36;4.4;2.8;2
72918;PMS7003;68407;55.694;26.994;2023-12-22T20:51:52;5;3.2;2.4
72918;PMS7003;68407;55.694;26.994;2023-12-22T20:57:18;5.2;2.8;1.8
72918;PMS7003;68407;55.694;26.994;2023-12-22T21:02:20;3.4;3;2.2
72918;PMS7003;68407;55.694;26.994;2023-12-22T21:07:04;5.4;3.6;2.4
72918;PMS7003;68407;55.694;26.994;2023-12-22T21:11:40;3.6;2.8;2.2
72918;PMS7003;68407;55.694;26.994;2023-12-22T21:16:46;5;3.2;2.2
72918;PMS7003;68407;55.694;26.994;2023-12-22T21:21:54;3.4;3;2
72918;PMS7003;68407;55.694;26.994;2023-12-22T21:27:22;7;3.4;3
72918;PMS7003;68407;55.694;26.994;2023-12-22T21:32:14;4.5;3.3;2.8
72918;PMS7003;68407;55.694;26.994;2023-12-22T21:37:02;3.8;2;1.6
72918;PMS7003;68407;55.694;26.994;2023-12-22T21:41:44;4.6;3.8;2.2
72918;PMS7003;68407;55.694;26.994;2023-12-22T21:47:12;6.6;3;2.2
72918;PMS7003;68407;55.694;26.994;2023-12-22T21:52:20;4.6;3.4;2.2
72918;PMS7003;68407;55.694;26.994;2023-12-22T21:57:12;3.8;2.8;1.8
72918;PMS7003;68407;55.694;26.994;2023-12-22T22:02:12;5.4;3.8;2.8
72918;PMS7003;68407;55.694;26.994;2023-12-22T22:06:52;5.2;3.4;2.6
72918;PMS7003;68407;55.694;26.994;2023-12-22T22:12:02;5.6;3.8;3
72918;PMS7003;68407;55.694;26.994;2023-12-22T22:17:22;5.8;3.4;2.4
72918;PMS7003;68407;55.694;26.994;2023-12-22T22:21:38;5.6;4;2.8
72918;PMS7003;68407;55.694;26.994;2023-12-22T22:26:52;4.6;2.6;1.8
72918;PMS7003;68407;55.694;26.994;2023-12-22T22:31:46;4.5;3.3;2.5
72918;PMS7003;68407;55.694;26.994;2023-12-22T22:37:06;6.6;3.6;2.2
72918;PMS7003;68407;55.694;26.994;2023-12-22T22:42:22;6.4;3.4;2.6
72918;PMS7003;68407;55.694;26.994;2023-12-22T22:46:56;4.2;3.6;2.8
72918;PMS7003;68407;55.694;26.994;2023-12-22T22:52:06;5.4;3.4;2.6
72918;PMS7003;68407;55.694;26.994;2023-12-22T22:56:37;5.2;3.8;2.6
72918;PMS7003;68407;55.694;26.994;2023-12-22T23:01:56;4.8;3;2.4
72918;PMS7003;68407;55.694;26.994;2023-12-22T23:07:22;5;3.4;2.4
72918;PMS7003;68407;55.694;26.994;2023-12-22T23:12:02;5.4;3.2;2.6
72918;PMS7003;68407;55.694;26.994;2023-12-22T23:16:38;5;4;2.8
72918;PMS7003;68407;55.694;26.994;2023-12-22T23:21:44;4.8;3.6;2.8
72918;PMS7003;68407;55.694;26.994;2023-12-22T23:26:40;5.4;3.8;2.8
72918;PMS7003;68407;55.694;26.994;2023-12-22T23:32:00;5;3.3;2.5
72918;PMS7003;68407;55.694;26.994;2023-12-22T23:37:10;4.2;3.4;2.6
72918;PMS7003;68407;55.694;26.994;2023-12-22T23:41:38;4.8;3.4;2.4
72918;PMS7003;68407;55.694;26.994;2023-12-22T23:46:46;4;3;2.2
72918;PMS7003;68407;55.694;26.994;2023-12-22T23:51:38;5.4;3.4;2.6
72918;PMS7003;68407;55.694;26.994;2023-12-22T23:57:22;4.6;2.6;2.2
